Time;durP1;ratioP1;P1;durP2;ratioP2;P2;SDS_P1;SDS_P2;PMS_P1;PMS_P2;Temp;Humidity;BMP_temperature;BMP_pressure;BME280_temperature;BME280_humidity;BME280_pressure;Samples;Min_cycle;Max_cycle;Signal;HPM_P1;HPM_P2
2022/10/14 00:01:32;;;;;;;6.03;3.28;;;;;;;14.17;52.24;94947.00;4161821;28;20145;-54
2022/10/14 00:03:35;;;;;;;7.40;3.33;;;;;;;14.08;52.39;94943.63;4162141;28;20093;-58
2022/10/14 00:05:40;;;;;;;7.63;3.78;;;;;;;14.00;52.61;94946.28;4162978;28;20053;-58
2022/10/14 00:07:43;;;;;;;6.38;3.15;;;;;;;14.02;52.79;94944.31;4164078;28;20081;-58
2022/10/14 00:09:45;;;;;;;4.97;3.27;;;;;;;14.06;52.83;94940.34;4163977;28;20498;-56
2022/10/14 00:11:48;;;;;;;5.38;2.80;;;;;;;14.12;52.76;94937.00;4163412;28;20525;-57
2022/10/14 00:13:53;;;;;;;7.00;3.25;;;;;;;14.15;52.73;94936.66;4164034;28;20076;-58
2022/10/14 00:15:55;;;;;;;6.30;3.00;;;;;;;14.15;52.72;94934.00;4161981;28;20041;-57
2022/10/14 00:17:56;;;;;;;6.53;3.22;;;;;;;14.13;52.74;94936.00;4163941;28;20117;-58
2022/10/14 00:19:59;;;;;;;6.13;3.22;;;;;;;14.15;53.23;94931.38;4163488;28;20107;-58
2022/10/14 00:22:00;;;;;;;4.18;2.65;;;;;;;14.16;52.99;94925.13;4163771;28;20125;-60
2022/10/14 00:24:02;;;;;;;5.40;3.08;;;;;;;14.15;53.32;94934.00;4163627;28;20132;-58
2022/10/14 00:26:04;;;;;;;7.68;2.80;;;;;;;14.07;54.03;94928.81;4163554;28;20049;-57
2022/10/14 00:28:06;;;;;;;4.40;2.30;;;;;;;14.01;54.26;94925.06;4163480;28;20059;-57
2022/10/14 00:30:08;;;;;;;4.88;2.28;;;;;;;14.00;54.57;94926.03;4155242;28;20073;-57
2022/10/14 00:32:10;;;;;;;4.80;2.60;;;;;;;13.99;54.60;94931.50;4160861;28;20407;-57
2022/10/14 00:34:14;;;;;;;2.85;2.33;;;;;;;14.04;54.84;94924.69;4163285;28;20060;-57
2022/10/14 00:36:18;;;;;;;3.53;2.40;;;;;;;14.08;54.60;94928.63;4163383;28;20123;-59
2022/10/14 00:38:20;;;;;;;6.97;2.88;;;;;;;14.16;54.83;94932.22;4161418;28;20144;-57
2022/10/14 00:40:22;;;;;;;3.33;2.40;;;;;;;14.21;54.49;94919.31;4162960;28;20129;-58
2022/10/14 00:42:24;;;;;;;6.18;2.58;;;;;;;14.23;54.50;94922.59;4163251;28;20053;-58
2022/10/14 00:44:26;;;;;;;5.20;2.70;;;;;;;14.24;54.60;94929.50;4162853;28;20096;-59
2022/10/14 00:46:30;;;;;;;5.03;3.00;;;;;;;14.26;54.78;94925.72;4161258;28;20128;-59
2022/10/14 00:48:32;;;;;;;4.75;2.58;;;;;;;14.22;54.78;94923.59;4163359;28;20143;-58
2022/10/14 00:50:34;;;;;;;8.50;2.60;;;;;;;14.21;54.81;94930.69;4163131;28;20144;-58
2022/10/14 00:52:36;;;;;;;6.47;2.15;;;;;;;14.23;54.99;94928.69;4161937;28;20053;-58
2022/10/14 00:55:02;;;;;;;6.13;2.42;;;;;;;14.19;54.77;94918.69;4163302;28;20240;-59
2022/10/14 00:57:04;;;;;;;5.70;2.80;;;;;;;14.09;55.14;94916.28;4161648;28;20115;-58
2022/10/14 00:59:06;;;;;;;4.53;2.50;;;;;;;14.06;55.66;94911.34;4161779;28;20084;-56
2022/10/14 01:01:08;;;;;;;4.65;2.88;;;;;;;14.00;55.46;94910.22;4161296;28;20067;-58
2022/10/14 01:03:18;;;;;;;6.30;2.70;;;;;;;13.94;55.77;94905.69;4163213;28;20137;-58
2022/10/14 01:05:20;;;;;;;4.80;2.17;;;;;;;13.91;55.95;94898.94;4163051;28;20140;-58
2022/10/14 01:07:39;;;;;;;4.65;2.53;;;;;;;13.90;56.28;94907.03;4161872;28;20129;-57
2022/10/14 01:09:59;;;;;;;4.93;2.67;;;;;;;13.91;56.16;94903.38;4161676;28;20140;-59
2022/10/14 01:12:10;;;;;;;3.75;2.50;;;;;;;13.92;56.11;94895.31;4160335;28;20472;-57
2022/10/14 01:14:58;;;;;;;7.88;2.42;;;;;;;13.93;56.18;94896.94;4160465;28;20403;-58
2022/10/14 01:17:22;;;;;;;6.90;2.38;;;;;;;13.90;56.69;94889.41;4154271;28;20451;-64
2022/10/14 01:19:59;;;;;;;3.90;2.45;;;;;;;13.76;56.51;94890.16;4161006;28;20048;-64
2022/10/14 01:22:12;;;;;;;3.90;2.33;;;;;;;13.70;56.89;94886.41;4161014;28;20145;-66
2022/10/14 01:24:39;;;;;;;4.28;2.05;;;;;;;13.68;57.19;94882.28;4160922;28;20056;-64
2022/10/14 01:27:06;;;;;;;3.78;2.00;;;;;;;13.64;57.08;94876.56;4160725;28;20132;-64
2022/10/14 01:29:13;;;;;;;3.95;2.22;;;;;;;13.62;57.51;94877.75;4162669;28;20077;-63
2022/10/14 01:31:47;;;;;;;3.53;2.03;;;;;;;13.57;57.54;94872.97;4156674;28;20148;-64
2022/10/14 01:33:52;;;;;;;4.38;2.00;;;;;;;13.65;57.38;94866.84;4145051;28;20049;-63
2022/10/14 01:36:10;;;;;;;4.20;1.92;;;;;;;13.67;57.64;94867.50;4161813;28;20471;-64
2022/10/14 01:38:21;;;;;;;5.47;2.35;;;;;;;13.61;57.30;94871.63;4160790;28;20524;-63
2022/10/14 01:40:30;;;;;;;7.15;2.47;;;;;;;13.57;57.91;94874.78;4162164;28;20045;-63
2022/10/14 01:42:34;;;;;;;6.07;2.70;;;;;;;13.60;57.57;94864.75;4162637;28;20132;-63
2022/10/14 01:44:40;;;;;;;3.92;2.33;;;;;;;13.57;57.64;94864.25;4146368;28;20041;-63
2022/10/14 01:46:45;;;;;;;5.88;2.33;;;;;;;13.54;58.14;94865.44;4160951;28;20085;-66
2022/10/14 01:48:50;;;;;;;3.85;2.30;;;;;;;13.53;57.98;94866.44;4156248;28;20137;-63
2022/10/14 01:50:53;;;;;;;4.18;2.13;;;;;;;13.51;58.41;94856.09;4161074;28;20079;-64
2022/10/14 01:53:00;;;;;;;9.18;3.05;;;;;;;13.45;58.94;94861.22;4161358;28;20601;-64
2022/10/14 01:55:05;;;;;;;4.53;2.35;;;;;;;13.38;58.97;94858.47;4160491;28;20076;-66
2022/10/14 01:57:10;;;;;;;6.55;2.50;;;;;;;13.43;58.71;94864.00;4159759;28;20053;-67
2022/10/14 01:59:14;;;;;;;5.53;2.42;;;;;;;13.47;58.69;94867.94;4161710;28;20119;-62
2022/10/14 02:01:16;;;;;;;4.65;2.50;;;;;;;13.44;59.02;94865.66;4159136;28;20548;-64
2022/10/14 02:03:18;;;;;;;6.53;2.33;;;;;;;13.39;59.35;94862.72;4162306;28;20049;-66
2022/10/14 02:05:33;;;;;;;4.60;2.08;;;;;;;13.36;59.51;94868.34;4154122;28;20084;-66
2022/10/14 02:07:39;;;;;;;7.63;1.98;;;;;;;13.23;60.38;94870.66;4161803;28;20049;-62
2022/10/14 02:10:03;;;;;;;4.88;1.83;;;;;;;13.13;60.16;94864.78;4159606;28;20461;-62
2022/10/14 02:12:19;;;;;;;;;;;;;;;12.99;61.33;94864.50;4161106;28;20053;-61
2022/10/14 02:14:38;;;;;;;5.15;2.10;;;;;;;13.00;61.22;94860.88;4160493;28;20414;-64
2022/10/14 02:16:48;;;;;;;6.10;2.00;;;;;;;12.99;61.72;94861.03;4160734;28;20053;-66
2022/10/14 02:19:19;;;;;;;5.93;2.15;;;;;;;13.03;61.74;94867.59;4161945;28;20045;-62
2022/10/14 02:21:30;;;;;;;5.25;2.20;;;;;;;13.03;61.65;94863.16;4156311;28;20084;-63
2022/10/14 02:23:40;;;;;;;5.05;1.95;;;;;;;13.03;61.93;94868.41;4160371;28;20119;-64
2022/10/14 02:25:44;;;;;;;4.70;2.10;;;;;;;13.09;61.61;94859.84;4159292;28;20053;-62
2022/10/14 02:27:47;;;;;;;7.22;2.10;;;;;;;13.04;61.39;94856.09;4160815;28;20045;-65
2022/10/14 02:29:49;;;;;;;5.10;2.00;;;;;;;13.02;61.64;94864.16;4160487;28;20049;-63
2022/10/14 02:31:52;;;;;;;5.57;2.03;;;;;;;13.07;61.96;94853.94;4158256;28;20361;-63
2022/10/14 02:33:57;;;;;;;5.03;2.10;;;;;;;13.06;62.15;94860.19;4159332;28;20108;-63
2022/10/14 02:36:00;;;;;;;5.47;2.00;;;;;;;13.09;62.07;94856.41;4157774;28;20065;-63
2022/10/14 02:38:03;;;;;;;4.35;1.77;;;;;;;13.10;61.85;94850.97;4160606;28;20510;-64
2022/10/14 02:40:17;;;;;;;5.53;2.50;;;;;;;13.04;62.13;94856.91;4144049;28;20042;-64
2022/10/14 02:42:19;;;;;;;4.82;1.75;;;;;;;13.06;62.16;94847.06;4154875;28;20451;-64
2022/10/14 02:44:21;;;;;;;4.60;2.53;;;;;;;13.13;62.10;94849.81;4161534;28;20081;-63
2022/10/14 02:46:23;;;;;;;4.82;2.10;;;;;;;13.18;62.22;94859.81;4160300;28;20061;-64
2022/10/14 02:48:25;;;;;;;5.40;2.20;;;;;;;13.22;61.72;94851.41;4161002;28;20132;-65
2022/10/14 02:50:27;;;;;;;5.65;2.47;;;;;;;13.28;61.67;94858.66;4161792;28;20078;-64
2022/10/14 02:52:28;;;;;;;3.78;1.85;;;;;;;13.24;61.58;94852.06;4161887;28;20060;-62
2022/10/14 02:54:30;;;;;;;4.28;2.25;;;;;;;13.23;61.77;94844.38;4161701;28;20084;-65
2022/10/14 02:56:32;;;;;;;3.88;2.03;;;;;;;13.17;62.14;94843.22;4161136;28;20085;-63
2022/10/14 02:58:34;;;;;;;3.78;2.03;;;;;;;13.14;62.09;94848.00;4161867;28;20077;-63
2022/10/14 03:00:35;;;;;;;5.18;2.30;;;;;;;13.18;62.36;94844.03;4160247;28;20057;-64
2022/10/14 03:02:37;;;;;;;6.28;1.90;;;;;;;13.13;62.33;94852.44;4161702;28;20136;-64
2022/10/14 03:04:39;;;;;;;4.97;2.20;;;;;;;13.10;62.43;94850.19;4161311;28;20092;-64
2022/10/14 03:06:40;;;;;;;5.28;2.10;;;;;;;12.88;62.82;94846.44;4161111;28;20054;-63
2022/10/14 03:08:42;;;;;;;5.03;2.30;;;;;;;12.91;63.13;94848.75;4161317;28;20132;-65
2022/10/14 03:10:47;;;;;;;7.15;2.58;;;;;;;12.88;63.16;94849.94;4160933;28;20124;-66
2022/10/14 03:12:49;;;;;;;4.30;2.75;;;;;;;12.94;63.21;94853.66;4161516;28;20133;-62
2022/10/14 03:14:50;;;;;;;3.88;2.20;;;;;;;13.02;62.92;94856.28;4161003;28;20049;-64
2022/10/14 03:16:52;;;;;;;4.63;2.35;;;;;;;13.07;62.89;94837.34;4156218;28;20108;-67
2022/10/14 03:18:54;;;;;;;3.90;2.30;;;;;;;13.15;62.91;94842.56;4161155;28;20116;-63
2022/10/14 03:20:55;;;;;;;3.53;1.88;;;;;;;13.18;62.56;94839.59;4161272;28;20159;-67
2022/10/14 03:22:57;;;;;;;3.97;2.30;;;;;;;13.25;62.76;94843.19;4161755;28;20081;-60
2022/10/14 03:24:59;;;;;;;3.70;2.10;;;;;;;13.14;62.91;94833.03;4160753;28;20157;-59
2022/10/14 03:27:01;;;;;;;3.00;2.20;;;;;;;13.08;62.88;94833.75;4161078;28;20045;-61
2022/10/14 03:29:02;;;;;;;5.75;2.50;;;;;;;12.94;63.65;94834.44;4161756;28;20053;-63
2022/10/14 03:31:04;;;;;;;4.32;2.33;;;;;;;12.83;63.70;94835.63;4159875;28;20136;-60
2022/10/14 03:33:06;;;;;;;6.18;2.47;;;;;;;12.77;63.90;94842.38;4157747;28;20057;-62
2022/10/14 03:35:09;;;;;;;5.22;2.70;;;;;;;12.85;63.94;94842.34;4156731;28;20077;-58
2022/10/14 03:37:11;;;;;;;3.10;2.40;;;;;;;12.83;64.14;94843.53;4164342;28;20057;-62
2022/10/14 03:39:12;;;;;;;3.08;1.88;;;;;;;12.86;64.41;94840.53;4164466;28;20084;-64
2022/10/14 03:41:14;;;;;;;3.13;2.00;;;;;;;12.92;64.25;94839.88;4163337;28;20128;-65
2022/10/14 03:43:16;;;;;;;6.18;2.50;;;;;;;12.83;64.40;94840.91;4164266;28;20099;-67
2022/10/14 03:45:18;;;;;;;3.47;2.38;;;;;;;12.85;64.68;94838.91;4162437;28;20571;-65
2022/10/14 03:47:20;;;;;;;4.00;2.10;;;;;;;12.87;64.59;94842.19;4164220;28;20081;-64
2022/10/14 03:49:22;;;;;;;3.05;2.30;;;;;;;12.77;64.19;94831.03;4163972;28;20073;-66
2022/10/14 03:51:23;;;;;;;6.43;2.40;;;;;;;12.73;64.76;94832.38;4163871;28;20060;-68
2022/10/14 03:53:25;;;;;;;6.43;2.53;;;;;;;12.74;65.13;94837.47;4164170;28;20152;-68
2022/10/14 03:55:26;;;;;;;4.95;2.70;;;;;;;12.78;64.65;94837.97;4163544;28;20159;-62
2022/10/14 03:57:28;;;;;;;4.63;2.75;;;;;;;12.80;64.50;94833.31;4164147;28;20057;-62
2022/10/14 03:59:30;;;;;;;3.90;2.80;;;;;;;12.86;64.29;94830.03;4163917;28;20049;-62
2022/10/14 04:01:32;;;;;;;4.95;2.50;;;;;;;12.73;64.76;94830.56;4161786;28;20049;-63
2022/10/14 04:03:33;;;;;;;3.83;2.65;;;;;;;12.73;64.96;94827.94;4162551;28;20049;-64
2022/10/14 04:05:35;;;;;;;3.92;3.03;;;;;;;12.75;64.99;94830.41;4157133;28;20417;-62
2022/10/14 04:07:37;;;;;;;4.47;3.00;;;;;;;12.75;64.67;94822.50;4164115;28;20046;-62
2022/10/14 04:09:39;;;;;;;4.68;2.90;;;;;;;12.79;64.91;94829.06;4163349;28;20424;-61
2022/10/14 04:11:41;;;;;;;5.88;3.20;;;;;;;12.74;64.84;94815.63;4163385;28;20132;-62
2022/10/14 04:13:44;;;;;;;7.55;3.63;;;;;;;12.69;65.22;94822.22;4163917;28;20140;-65
2022/10/14 04:15:45;;;;;;;5.90;3.28;;;;;;;12.57;65.13;94814.84;4162376;28;20104;-64
2022/10/14 04:17:48;;;;;;;5.03;3.28;;;;;;;12.56;65.46;94824.56;4163741;28;20053;-64
2022/10/14 04:19:50;;;;;;;4.32;3.47;;;;;;;12.63;65.43;94819.44;4160783;28;20053;-62
2022/10/14 04:21:52;;;;;;;7.32;3.75;;;;;;;12.49;65.92;94807.78;4157264;28;20080;-63
2022/10/14 04:23:53;;;;;;;7.78;4.00;;;;;;;12.57;65.36;94813.03;4163631;28;20060;-64
2022/10/14 04:25:55;;;;;;;7.40;4.53;;;;;;;12.64;65.48;94813.19;4163390;28;20049;-63
2022/10/14 04:27:57;;;;;;;7.43;4.40;;;;;;;12.76;65.08;94814.47;4163905;28;20073;-64
2022/10/14 04:29:58;;;;;;;5.57;4.40;;;;;;;12.83;65.04;94801.47;4163670;28;20148;-65
2022/10/14 04:32:00;;;;;;;7.65;4.60;;;;;;;12.91;64.70;94811.94;4162211;28;20627;-64
2022/10/14 04:34:02;;;;;;;5.68;4.72;;;;;;;12.95;64.63;94815.03;4162255;28;20441;-65
2022/10/14 04:36:05;;;;;;;5.82;4.13;;;;;;;12.98;64.76;94822.59;4159628;28;20128;-63
2022/10/14 04:38:07;;;;;;;10.20;5.00;;;;;;;12.93;64.21;94815.22;4163731;28;20072;-63
2022/10/14 04:40:09;;;;;;;7.35;4.80;;;;;;;12.84;64.56;94813.59;4163220;28;20132;-66
2022/10/14 04:42:11;;;;;;;7.15;5.00;;;;;;;12.81;64.96;94801.63;4163176;28;20084;-64
2022/10/14 04:44:12;;;;;;;10.00;4.40;;;;;;;12.81;64.89;94808.69;4163525;28;20045;-64
2022/10/14 04:46:14;;;;;;;10.65;4.78;;;;;;;12.84;64.96;94811.81;4161725;28;20138;-66
2022/10/14 04:48:17;;;;;;;5.90;3.97;;;;;;;12.88;64.84;94809.66;4163377;28;20060;-64
2022/10/14 04:50:19;;;;;;;6.97;4.90;;;;;;;12.94;64.71;94808.16;4161976;28;20057;-64
2022/10/14 04:52:20;;;;;;;7.40;5.43;;;;;;;12.94;64.51;94801.06;4163362;28;20053;-66
2022/10/14 04:54:23;;;;;;;6.82;4.78;;;;;;;12.92;64.27;94792.53;4163651;28;20734;-66
2022/10/14 04:56:25;;;;;;;5.25;4.32;;;;;;;12.94;64.38;94795.00;4162334;28;20425;-62
2022/10/14 04:58:26;;;;;;;7.13;4.90;;;;;;;12.86;64.54;94804.56;4163124;28;20058;-61
2022/10/14 05:00:29;;;;;;;7.20;4.40;;;;;;;12.77;64.15;94804.75;4161443;28;20049;-63
2022/10/14 05:02:31;;;;;;;8.13;4.18;;;;;;;12.71;64.35;94801.00;4163073;28;20697;-64
2022/10/14 05:04:32;;;;;;;7.70;4.13;;;;;;;12.61;64.81;94805.66;4162672;28;20057;-63
2022/10/14 05:06:36;;;;;;;7.60;4.30;;;;;;;12.62;65.04;94805.44;4151471;28;20041;-63
2022/10/14 05:08:37;;;;;;;9.45;4.50;;;;;;;12.61;65.13;94803.81;4163018;28;20123;-65
2022/10/14 05:10:39;;;;;;;5.72;4.43;;;;;;;12.56;65.42;94798.28;4162495;28;20057;-63
2022/10/14 05:12:41;;;;;;;5.85;4.40;;;;;;;12.57;65.32;94794.63;4152851;28;20116;-58
2022/10/14 05:14:43;;;;;;;7.07;4.93;;;;;;;12.66;65.02;94793.63;4162781;28;20128;-61
2022/10/14 05:16:44;;;;;;;4.93;3.80;;;;;;;12.76;64.39;94793.44;4161304;28;20126;-60
2022/10/14 05:18:46;;;;;;;6.38;4.78;;;;;;;12.82;63.74;94791.91;4162705;28;20525;-58
2022/10/14 05:20:48;;;;;;;11.75;8.40;;;;;;;12.87;63.77;94792.25;4162834;28;20611;-55
2022/10/14 05:22:49;;;;;;;13.23;6.20;;;;;;;12.95;63.33;94794.84;4162958;28;20049;-62
2022/10/14 05:24:51;;;;;;;9.15;4.45;;;;;;;13.04;63.43;94788.53;4162537;28;20431;-59
2022/10/14 05:26:53;;;;;;;7.53;4.47;;;;;;;12.99;62.80;94790.88;4149605;28;20107;-60
2022/10/14 05:28:54;;;;;;;8.10;5.78;;;;;;;12.98;62.63;94794.50;4162763;28;20064;-60
2022/10/14 05:30:56;;;;;;;9.88;3.97;;;;;;;13.02;62.75;94793.16;4160950;28;20097;-59
2022/10/14 05:32:58;;;;;;;6.55;3.33;;;;;;;13.11;61.97;94791.31;4162496;28;20107;-59
2022/10/14 05:35:00;;;;;;;4.85;3.35;;;;;;;13.06;61.65;94791.81;4157808;28;20057;-60
2022/10/14 05:37:02;;;;;;;8.30;3.65;;;;;;;13.00;61.74;94796.97;4153059;28;20045;-57
2022/10/14 05:39:08;;;;;;;6.00;4.00;;;;;;;12.97;62.11;94802.53;4162654;28;20128;-58
2022/10/14 05:41:09;;;;;;;5.57;3.22;;;;;;;12.94;61.86;94795.81;4162014;28;20049;-57
2022/10/14 05:43:11;;;;;;;4.72;3.42;;;;;;;13.01;61.62;94801.22;4161220;28;20075;-57
2022/10/14 05:45:13;;;;;;;7.13;3.60;;;;;;;13.03;61.31;94801.84;4160076;28;20046;-57
2022/10/14 05:47:15;;;;;;;8.35;3.95;;;;;;;12.97;61.46;94805.16;4160049;28;20049;-60
2022/10/14 05:49:17;;;;;;;16.85;10.77;;;;;;;13.01;61.45;94807.28;4162455;28;20053;-58
2022/10/14 05:51:20;;;;;;;5.70;3.78;;;;;;;12.97;61.35;94808.63;4162005;28;20115;-61
2022/10/14 05:53:22;;;;;;;7.47;3.85;;;;;;;13.04;61.11;94808.78;4162151;28;20053;-57
2022/10/14 05:55:23;;;;;;;4.30;3.60;;;;;;;13.13;60.81;94805.09;4161220;28;20107;-58
2022/10/14 05:57:26;;;;;;;6.35;4.22;;;;;;;13.23;60.80;94812.78;4162207;28;20556;-61
2022/10/14 05:59:28;;;;;;;5.27;4.07;;;;;;;13.30;60.48;94824.28;4162004;28;20057;-59
2022/10/14 06:01:33;;;;;;;8.80;4.07;;;;;;;13.33;60.29;94818.66;4160359;28;20410;-57
2022/10/14 06:03:35;;;;;;;4.18;3.78;;;;;;;13.26;60.97;94820.34;4158973;28;20645;-58
2022/10/14 06:05:37;;;;;;;5.22;3.83;;;;;;;13.30;60.68;94817.22;4155458;28;20045;-61
2022/10/14 06:07:38;;;;;;;5.65;4.18;;;;;;;13.31;60.33;94828.53;4162543;28;20128;-59
2022/10/14 06:09:40;;;;;;;5.00;4.50;;;;;;;13.36;60.25;94828.88;4161698;28;20498;-59
2022/10/14 06:11:42;;;;;;;5.55;3.53;;;;;;;13.32;60.05;94836.28;4161786;28;20069;-58
2022/10/14 06:13:44;;;;;;;6.45;4.07;;;;;;;13.30;59.87;94834.81;4162055;28;20053;-60
2022/10/14 06:15:45;;;;;;;7.43;4.35;;;;;;;13.30;60.09;94847.97;4160540;28;20060;-58
2022/10/14 06:17:47;;;;;;;7.43;4.28;;;;;;;13.29;59.74;94839.25;4162175;28;20409;-60
2022/10/14 06:19:49;;;;;;;6.90;4.18;;;;;;;13.32;59.95;94838.09;4162068;28;20080;-60
2022/10/14 06:21:50;;;;;;;6.93;4.00;;;;;;;13.23;59.62;94841.72;4161987;28;20107;-61
2022/10/14 06:23:52;;;;;;;6.55;4.18;;;;;;;13.30;60.35;94842.72;4162397;28;20041;-60
2022/10/14 06:25:54;;;;;;;13.45;9.05;;;;;;;13.40;59.73;94843.31;4161449;28;20080;-59
2022/10/14 06:28:05;;;;;;;7.43;5.38;;;;;;;13.51;59.86;94850.81;4162122;28;20107;-58
2022/10/14 06:30:07;;;;;;;8.40;4.90;;;;;;;13.60;59.51;94846.31;4161009;28;20053;-61
2022/10/14 06:32:09;;;;;;;6.43;4.63;;;;;;;13.73;59.21;94841.28;4160938;28;20041;-58
2022/10/14 06:34:10;;;;;;;9.52;4.95;;;;;;;13.77;59.41;94846.22;4162133;28;20457;-59
2022/10/14 06:36:12;;;;;;;12.95;5.93;;;;;;;13.81;59.33;94844.84;4156151;28;20046;-59
2022/10/14 06:38:15;;;;;;;8.45;4.95;;;;;;;13.82;59.77;94847.31;4159038;28;20045;-60
2022/10/14 06:40:17;;;;;;;14.67;5.07;;;;;;;13.66;60.15;94852.72;4161745;28;20095;-60
2022/10/14 06:42:19;;;;;;;6.60;3.63;;;;;;;13.74;59.56;94850.00;4162027;28;20056;-59
2022/10/14 06:44:20;;;;;;;17.48;5.35;;;;;;;13.60;59.77;94848.13;4161398;28;20053;-59
2022/10/14 06:46:24;;;;;;;10.27;5.63;;;;;;;13.55;60.52;94850.47;4154206;28;20053;-58
2022/10/14 06:48:25;;;;;;;9.50;4.38;;;;;;;13.49;59.86;94849.34;4161507;28;20057;-57
2022/10/14 06:50:27;;;;;;;6.85;4.20;;;;;;;13.61;60.22;94855.84;4161875;28;20092;-60
2022/10/14 06:52:29;;;;;;;6.43;3.92;;;;;;;13.75;59.98;94851.66;4162175;28;20042;-62
2022/10/14 06:54:30;;;;;;;11.10;3.85;;;;;;;13.69;59.41;94850.53;4161765;28;20054;-60
2022/10/14 06:56:39;;;;;;;7.07;3.25;;;;;;;13.55;59.69;94847.81;4161046;28;20065;-57
2022/10/14 06:58:41;;;;;;;6.88;3.78;;;;;;;13.61;59.66;94839.25;4161688;28;20490;-66
2022/10/14 07:00:43;;;;;;;5.57;3.42;;;;;;;13.45;60.16;94838.34;4158137;28;20053;-63
2022/10/14 07:02:48;;;;;;;4.55;3.63;;;;;;;13.52;60.21;94846.38;4161686;28;20119;-64
2022/10/14 07:04:50;;;;;;;7.65;3.75;;;;;;;13.70;59.62;94846.09;4161560;28;20058;-65
2022/10/14 07:06:52;;;;;;;5.63;3.50;;;;;;;13.83;59.08;94841.06;4157196;28;20434;-65
2022/10/14 07:08:53;;;;;;;5.65;4.25;;;;;;;14.00;58.69;94844.38;4161650;28;20053;-67
2022/10/14 07:10:55;;;;;;;5.18;3.80;;;;;;;14.05;59.11;94830.72;4163078;28;20107;-65
2022/10/14 07:12:57;;;;;;;6.53;4.55;;;;;;;14.14;58.68;94846.25;4164209;28;20049;-64
2022/10/14 07:14:59;;;;;;;7.63;4.47;;;;;;;14.20;58.24;94838.66;4151637;28;20057;-65
2022/10/14 07:17:00;;;;;;;4.22;3.75;;;;;;;13.95;58.77;94843.28;4161544;28;20094;-66
2022/10/14 07:19:02;;;;;;;6.10;4.00;;;;;;;14.04;58.44;94840.41;4164501;28;20053;-62
2022/10/14 07:21:05;;;;;;;5.80;3.90;;;;;;;14.16;57.86;94840.00;4164125;28;20053;-62
2022/10/14 07:23:06;;;;;;;7.60;3.90;;;;;;;14.22;57.09;94847.19;4164679;28;20050;-66
2022/10/14 07:25:08;;;;;;;13.55;4.18;;;;;;;14.22;57.03;94842.75;4131548;28;20080;-64
2022/10/14 07:27:10;;;;;;;6.40;4.25;;;;;;;14.22;56.70;94845.38;4153926;28;20057;-64
2022/10/14 07:29:12;;;;;;;7.10;4.15;;;;;;;14.33;56.21;94841.50;4164413;28;20072;-64
2022/10/14 07:31:14;;;;;;;8.75;4.03;;;;;;;14.36;56.04;94842.97;4163120;28;20526;-67
2022/10/14 07:33:16;;;;;;;6.60;4.05;;;;;;;14.13;56.87;94841.16;4157525;28;20045;-65
2022/10/14 07:35:20;;;;;;;6.57;4.13;;;;;;;14.08;57.10;94840.88;4164303;28;20517;-68
2022/10/14 07:37:22;;;;;;;8.50;4.25;;;;;;;14.13;56.95;94838.53;4162432;28;20479;-66
2022/10/14 07:39:24;;;;;;;7.85;5.00;;;;;;;14.25;57.36;94836.31;4154118;28;20049;-64
2022/10/14 07:41:26;;;;;;;7.18;4.45;;;;;;;14.42;56.87;94840.41;4162359;28;20056;-67
2022/10/14 07:43:29;;;;;;;5.05;4.15;;;;;;;14.45;56.74;94829.50;4163222;28;20068;-65
2022/10/14 07:45:34;;;;;;;6.35;3.75;;;;;;;14.48;56.61;94837.06;4155225;28;20049;-67
2022/10/14 07:47:36;;;;;;;7.93;4.82;;;;;;;14.58;56.16;94831.56;4163291;28;20088;-65
2022/10/14 07:49:38;;;;;;;9.00;4.72;;;;;;;14.70;56.18;94835.41;4163344;28;20111;-65
2022/10/14 07:51:41;;;;;;;4.80;4.20;;;;;;;14.60;55.79;94834.84;4163775;28;20099;-63
2022/10/14 07:53:42;;;;;;;17.97;4.10;;;;;;;14.37;57.06;94829.59;4164313;28;20049;-65
2022/10/14 07:55:51;;;;;;;7.28;4.68;;;;;;;14.29;57.39;94840.22;4163546;28;20115;-65
2022/10/14 07:57:52;;;;;;;7.25;4.88;;;;;;;14.48;57.57;94828.34;4147486;28;20171;-67
2022/10/14 07:59:54;;;;;;;7.32;5.03;;;;;;;14.66;56.86;94838.56;4163808;28;20053;-66
2022/10/14 08:01:56;;;;;;;8.32;5.00;;;;;;;14.86;56.58;94836.22;4162726;28;20045;-64
2022/10/14 08:03:58;;;;;;;8.35;4.68;;;;;;;14.90;56.01;94827.75;4159066;28;20561;-66
2022/10/14 08:06:02;;;;;;;8.00;4.32;;;;;;;14.87;55.90;94833.41;4159052;28;20056;-68
2022/10/14 08:08:04;;;;;;;6.45;4.25;;;;;;;14.93;55.48;94832.69;4163459;28;20057;-60
2022/10/14 08:10:06;;;;;;;5.32;4.47;;;;;;;14.98;55.16;94839.22;4161775;28;20041;-63
2022/10/14 08:12:08;;;;;;;5.30;4.05;;;;;;;15.02;54.88;94827.31;4163587;28;20038;-60
2022/10/14 08:14:09;;;;;;;5.93;4.78;;;;;;;15.06;54.55;94834.66;4164005;28;20049;-61
2022/10/14 08:16:17;;;;;;;8.55;5.07;;;;;;;15.06;54.41;94834.66;4162189;28;20076;-59
2022/10/14 08:18:18;;;;;;;8.75;5.05;;;;;;;15.11;54.05;94834.13;4163833;28;20107;-61
2022/10/14 08:20:20;;;;;;;10.38;5.38;;;;;;;15.14;54.14;94847.78;4163127;28;20057;-59
2022/10/14 08:22:27;;;;;;;9.25;4.88;;;;;;;15.18;53.93;94837.66;4163433;28;20683;-59
2022/10/14 08:24:28;;;;;;;10.85;5.65;;;;;;;15.23;53.91;94843.22;4163695;28;20053;-58
2022/10/14 08:26:33;;;;;;;10.02;4.55;;;;;;;15.28;53.47;94840.00;4163283;28;20103;-60
2022/10/14 08:28:35;;;;;;;9.02;4.63;;;;;;;15.09;52.95;94839.56;4163894;28;20099;-60
2022/10/14 08:30:37;;;;;;;9.90;4.25;;;;;;;15.03;53.26;94835.03;4161977;28;20112;-60
2022/10/14 08:32:38;;;;;;;7.38;4.38;;;;;;;14.88;53.20;94844.75;4162320;28;20112;-60
2022/10/14 08:34:40;;;;;;;10.95;4.45;;;;;;;14.93;53.49;94837.94;4163606;28;20049;-58
2022/10/14 08:36:42;;;;;;;7.05;3.88;;;;;;;14.83;53.40;94844.50;4158190;28;20053;-60
2022/10/14 08:38:44;;;;;;;5.47;4.30;;;;;;;14.89;53.59;94838.50;4160536;28;20099;-59
2022/10/14 08:40:58;;;;;;;9.05;4.97;;;;;;;14.95;53.71;94838.59;4162475;28;20050;-61
2022/10/14 08:43:05;;;;;;;6.18;3.88;;;;;;;14.83;53.20;94839.22;4162150;28;20050;-62
2022/10/14 08:45:14;;;;;;;6.82;4.10;;;;;;;14.95;53.56;94843.06;4162677;28;20049;-59
2022/10/14 08:47:20;;;;;;;4.32;3.58;;;;;;;15.07;53.03;94846.84;4161600;28;20050;-59
2022/10/14 08:49:34;;;;;;;11.35;4.45;;;;;;;15.19;52.77;94847.22;4162169;28;20053;-61
2022/10/14 08:51:36;;;;;;;8.68;4.45;;;;;;;15.32;52.52;94849.22;4163093;28;20061;-64
2022/10/14 08:53:45;;;;;;;9.98;4.18;;;;;;;15.30;52.03;94845.94;4163498;28;20053;-63
2022/10/14 08:55:50;;;;;;;8.90;3.60;;;;;;;15.36;52.19;94853.13;4161576;28;20060;-65
2022/10/14 08:58:21;;;;;;;5.43;3.85;;;;;;;15.35;51.66;94848.81;4163302;28;20579;-65
2022/10/14 09:00:23;;;;;;;6.25;3.83;;;;;;;15.41;51.83;94842.00;4146556;28;20049;-59
2022/10/14 09:02:42;;;;;;;6.68;3.63;;;;;;;15.40;51.51;94841.19;4162147;28;20119;-62
2022/10/14 09:04:44;;;;;;;7.25;4.00;;;;;;;15.59;51.80;94844.22;4162907;28;20068;-60
2022/10/14 09:06:46;;;;;;;10.20;4.20;;;;;;;15.64;50.53;94837.38;4163163;28;20520;-63
2022/10/14 09:08:49;;;;;;;5.27;3.37;;;;;;;15.70;49.89;94841.94;4163136;28;20084;-60
2022/10/14 09:10:51;;;;;;;5.25;3.60;;;;;;;15.70;49.83;94843.72;4159940;28;20050;-60
2022/10/14 09:12:55;;;;;;;5.22;3.30;;;;;;;15.67;49.92;94839.66;4161491;28;20111;-62
2022/10/14 09:15:20;;;;;;;5.78;3.38;;;;;;;15.72;50.35;94841.75;4160736;28;20409;-61
2022/10/14 09:17:25;;;;;;;6.10;3.30;;;;;;;15.79;49.98;94839.19;4162046;28;20107;-58
2022/10/14 09:19:36;;;;;;;4.80;3.58;;;;;;;15.83;50.16;94835.16;4161209;28;20065;-58
2022/10/14 09:21:42;;;;;;;4.60;3.60;;;;;;;15.91;49.97;94827.91;4160892;28;20501;-60
2022/10/14 09:24:12;;;;;;;5.80;3.20;;;;;;;16.02;49.57;94836.34;4155694;28;20083;-59
2022/10/14 09:26:18;;;;;;;5.88;3.25;;;;;;;16.11;49.23;94828.13;4162211;28;20257;-58
2022/10/14 09:28:22;;;;;;;4.28;3.08;;;;;;;16.18;49.16;94833.47;4161365;28;20049;-59
2022/10/14 09:30:28;;;;;;;7.60;3.10;;;;;;;16.28;48.66;94826.03;4159847;28;20245;-57
2022/10/14 09:32:40;;;;;;;5.38;3.65;;;;;;;16.31;48.67;94830.13;4161190;28;20049;-66
2022/10/14 09:34:47;;;;;;;4.95;3.00;;;;;;;16.35;48.19;94834.03;4160695;28;20053;-66
2022/10/14 09:36:49;;;;;;;4.50;3.00;;;;;;;16.38;47.73;94828.34;4162875;28;20053;-66
2022/10/14 09:38:56;;;;;;;7.75;3.00;;;;;;;16.42;47.06;94816.38;4160691;28;20041;-67
2022/10/14 09:41:09;;;;;;;4.20;3.03;;;;;;;16.32;47.70;94823.81;4155900;28;20060;-66
2022/10/14 09:43:17;;;;;;;4.32;2.88;;;;;;;16.41;48.21;94829.78;4160391;28;20909;-67
2022/10/14 09:45:23;;;;;;;5.47;3.00;;;;;;;16.52;48.47;94821.31;4159814;28;20053;-67
2022/10/14 09:47:25;;;;;;;8.68;3.75;;;;;;;16.59;48.35;94819.53;4162514;28;20088;-66